Time;durP1;ratioP1;P1;durP2;ratioP2;P2;SDS_P1;SDS_P2;PMS_P1;PMS_P2;Temp;Humidity;BMP_temperature;BMP_pressure;BME280_temperature;BME280_humidity;BME280_pressure;Samples;Min_cycle;Max_cycle;Signal;HPM_P1;HPM_P2
2022/02/23 00:00:34;;;;;;;7.47;1.17;;;;;;;4.93;97.55;100457.63;5133622;27;20191;-76
2022/02/23 00:02:59;;;;;;;10.93;1.00;;;;;;;4.94;96.99;100463.88;5129980;27;20222;-75
2022/02/23 00:05:24;;;;;;;1.07;0.83;;;;;;;4.92;97.19;100466.00;5112880;28;20249;-75
2022/02/23 00:07:50;;;;;;;1.00;0.40;;;;;;;4.90;97.78;100455.47;5112673;28;20189;-75
2022/02/23 00:10:15;;;;;;;3.87;0.77;;;;;;;4.90;97.97;100468.19;5112713;28;20177;-75
2022/02/23 00:12:41;;;;;;;3.80;1.07;;;;;;;4.97;97.81;100474.13;5112966;28;20169;-75
2022/02/23 00:15:06;;;;;;;1.00;1.00;;;;;;;5.07;97.58;100490.38;5112501;28;20184;-75
2022/02/23 00:17:32;;;;;;;2.37;0.93;;;;;;;5.07;97.13;100485.78;5112454;28;20223;-75
2022/02/23 00:19:57;;;;;;;3.93;0.47;;;;;;;5.11;96.60;100483.31;5112634;28;20177;-75
2022/02/23 00:22:23;;;;;;;0.77;0.73;;;;;;;5.09;97.31;100499.03;5112579;28;20165;-75
2022/02/23 00:24:49;;;;;;;3.50;0.63;;;;;;;5.09;97.16;100504.44;5112509;28;20169;-74
2022/02/23 00:27:15;;;;;;;0.50;0.50;;;;;;;5.10;97.11;100494.44;5112604;27;20251;-75
2022/02/23 00:29:41;;;;;;;4.97;0.50;;;;;;;5.07;97.11;100506.63;5112388;28;20182;-74
2022/02/23 00:32:06;;;;;;;0.60;0.60;;;;;;;5.02;97.32;100510.13;5112387;28;20171;-75
2022/02/23 00:34:32;;;;;;;0.63;0.63;;;;;;;4.99;98.33;100505.28;5112638;28;20218;-74
2022/02/23 00:36:57;;;;;;;1.40;1.07;;;;;;;5.00;98.50;100519.63;5111963;28;20632;-75
2022/02/23 00:39:23;;;;;;;2.17;1.60;;;;;;;4.99;99.35;100513.38;5112481;28;20169;-74
2022/02/23 00:41:50;;;;;;;9.03;2.20;;;;;;;4.98;99.92;100519.09;5112445;28;20177;-74
2022/02/23 00:44:15;;;;;;;1.23;0.50;;;;;;;4.96;100.00;100519.34;5112150;28;20165;-75
2022/02/23 00:46:41;;;;;;;4.13;0.43;;;;;;;4.98;100.00;100524.50;5111916;28;20169;-74
2022/02/23 00:49:07;;;;;;;2.33;1.37;;;;;;;4.97;100.00;100533.69;5111904;28;20201;-75
2022/02/23 00:51:32;;;;;;;3.30;1.27;;;;;;;4.99;100.00;100550.47;5112358;28;20173;-76
2022/02/23 00:53:58;;;;;;;1.53;1.37;;;;;;;4.97;100.00;100533.69;5112048;28;20177;-75
2022/02/23 00:56:24;;;;;;;2.03;1.13;;;;;;;4.89;100.00;100528.81;5110603;28;20180;-75
2022/02/23 00:58:49;;;;;;;12.70;2.80;;;;;;;4.88;100.00;100543.44;5111743;28;20165;-75
2022/02/23 01:01:14;;;;;;;6.63;1.83;;;;;;;4.86;100.00;100546.41;5111760;28;20169;-74
2022/02/23 01:03:40;;;;;;;8.20;1.50;;;;;;;4.83;100.00;100528.03;5111748;28;20169;-74
2022/02/23 01:06:06;;;;;;;0.50;0.37;;;;;;;4.83;100.00;100549.69;5112023;28;20169;-74
2022/02/23 01:08:32;;;;;;;1.70;1.60;;;;;;;4.87;100.00;100552.66;5111543;28;20196;-74
2022/02/23 01:10:57;;;;;;;1.50;0.40;;;;;;;4.94;100.00;100567.53;5111756;28;20173;-74
2022/02/23 01:13:23;;;;;;;2.50;0.53;;;;;;;4.98;100.00;100584.06;5111932;28;20527;-75
2022/02/23 01:15:48;;;;;;;3.13;1.13;;;;;;;5.00;99.67;100574.56;5111428;28;20169;-74
2022/02/23 01:18:14;;;;;;;1.20;1.10;;;;;;;4.98;100.00;100573.22;5121723;27;20180;-74
2022/02/23 01:20:39;;;;;;;1.07;0.50;;;;;;;4.98;99.65;100567.81;5132218;27;20639;-75
2022/02/23 01:23:05;;;;;;;2.57;1.30;;;;;;;5.01;99.97;100578.09;5132100;27;20171;-74
2022/02/23 01:25:31;;;;;;;0.37;0.20;;;;;;;5.12;98.43;100587.84;5131961;27;20171;-75
2022/02/23 01:28:02;;;;;;;3.27;1.33;;;;;;;5.16;97.89;100597.03;5131705;27;20551;-74
2022/02/23 01:30:29;;;;;;;0.53;0.50;;;;;;;5.17;97.84;100592.44;5131791;27;20527;-75
2022/02/23 01:32:54;;;;;;;0.77;0.63;;;;;;;5.16;98.04;100580.78;5131908;27;20179;-75
2022/02/23 01:35:20;;;;;;;2.30;1.00;;;;;;;5.19;97.58;100593.78;5131397;27;20620;-75
2022/02/23 01:37:46;;;;;;;0.47;0.47;;;;;;;5.20;97.19;100603.53;5131625;27;20188;-75
2022/02/23 01:40:12;;;;;;;2.60;1.10;;;;;;;5.25;96.74;100602.75;5131821;27;20172;-74
2022/02/23 01:42:37;;;;;;;0.83;0.57;;;;;;;5.25;96.31;100603.56;5132018;27;20248;-75
2022/02/23 01:45:04;;;;;;;8.37;1.37;;;;;;;5.24;96.44;100596.50;5131729;27;20612;-76
2022/02/23 01:47:29;;;;;;;3.97;3.00;;;;;;;5.22;96.38;100609.50;5131469;27;20189;-75
2022/02/23 01:49:56;;;;;;;0.97;0.20;;;;;;;5.19;96.76;100610.03;5131513;27;20176;-75
2022/02/23 01:52:25;;;;;;;6.00;3.17;;;;;;;5.22;96.38;100611.41;5131711;27;20204;-76
2022/02/23 01:54:53;;;;;;;0.83;0.20;;;;;;;5.20;96.38;100618.97;5131907;27;20251;-75
2022/02/23 01:57:19;;;;;;;8.80;2.30;;;;;;;5.21;96.16;100621.44;5131334;27;20622;-74
2022/02/23 01:59:45;;;;;;;6.70;1.10;;;;;;;5.19;96.10;100614.63;5131530;27;20196;-77
2022/02/23 02:02:10;;;;;;;1.60;0.67;;;;;;;5.15;96.86;100627.91;5131595;27;20208;-75
2022/02/23 02:04:35;;;;;;;8.03;1.67;;;;;;;5.16;97.08;100624.13;5131796;27;20172;-75
2022/02/23 02:07:01;;;;;;;5.63;1.40;;;;;;;5.21;96.18;100637.69;5129947;28;20587;-75
2022/02/23 02:09:26;;;;;;;2.27;1.43;;;;;;;5.28;95.43;100645.53;5131610;27;20181;-75
2022/02/23 02:11:52;;;;;;;0.93;0.93;;;;;;;5.29;95.43;100653.38;5131525;27;20256;-75
2022/02/23 02:14:17;;;;;;;0.90;0.90;;;;;;;5.32;94.29;100644.69;5131232;27;20615;-74
2022/02/23 02:16:42;;;;;;;1.50;1.40;;;;;;;5.34;94.11;100649.84;5131340;27;20188;-75
2022/02/23 02:19:08;;;;;;;1.50;1.00;;;;;;;5.33;94.12;100650.94;5131558;27;20183;-75
2022/02/23 02:21:55;;;;;;;2.53;1.20;;;;;;;5.36;93.43;100661.25;5131732;27;20217;-74
2022/02/23 02:24:23;;;;;;;5.53;1.13;;;;;;;5.36;93.30;100659.34;5131338;28;20173;-75
2022/02/23 02:26:48;;;;;;;4.60;1.57;;;;;;;5.36;93.07;100662.06;5131149;27;20183;-75
2022/02/23 02:29:14;;;;;;;1.07;0.50;;;;;;;5.34;93.62;100663.41;5130033;28;20674;-76
2022/02/23 02:31:40;;;;;;;6.83;1.20;;;;;;;5.33;93.43;100664.47;5131675;27;20180;-75
2022/02/23 02:34:05;;;;;;;2.40;0.47;;;;;;;5.34;93.78;100682.34;5131315;27;20168;-74
2022/02/23 02:36:30;;;;;;;1.73;1.03;;;;;;;5.35;93.51;100678.56;5131088;27;20205;-75
2022/02/23 02:38:56;;;;;;;0.60;0.17;;;;;;;5.32;93.77;100676.41;5131140;27;20192;-75
2022/02/23 02:41:21;;;;;;;1.10;1.10;;;;;;;5.30;93.37;100682.09;5131211;27;20248;-76
2022/02/23 02:43:47;;;;;;;4.60;1.33;;;;;;;5.33;92.72;100683.44;5131310;28;20200;-75
2022/02/23 02:46:12;;;;;;;1.37;0.87;;;;;;;5.29;93.43;100682.38;5131305;27;20535;-75
2022/02/23 02:48:37;;;;;;;0.20;0.17;;;;;;;5.23;93.89;100681.56;5134758;27;20200;-75
2022/02/23 02:51:03;;;;;;;0.37;0.30;;;;;;;5.24;94.39;100693.22;5135309;27;20569;-75
2022/02/23 02:53:28;;;;;;;0.77;0.10;;;;;;;5.15;94.82;100692.09;5131624;27;20366;-75
2022/02/23 02:55:53;;;;;;;0.97;0.97;;;;;;;5.04;95.44;100693.97;5114320;28;20310;-74
2022/02/23 02:58:19;;;;;;;6.97;0.57;;;;;;;4.98;96.08;100703.19;5114025;28;20176;-74
2022/02/23 03:00:44;;;;;;;4.03;2.27;;;;;;;4.94;96.90;100700.22;5114191;27;20179;-74
2022/02/23 03:03:10;;;;;;;3.40;2.53;;;;;;;4.88;97.02;100703.16;5114141;28;20169;-74
2022/02/23 03:05:35;;;;;;;1.30;1.30;;;;;;;4.85;97.85;100709.09;5114009;28;20637;-74
2022/02/23 03:08:00;;;;;;;33.10;1.03;;;;;;;4.85;98.35;100712.63;5114105;28;20192;-74
2022/02/23 03:10:26;;;;;;;1.30;0.70;;;;;;;4.86;98.24;100726.97;5114104;28;20293;-76
2022/02/23 03:12:51;;;;;;;3.67;0.60;;;;;;;4.90;98.15;100728.06;5113431;28;20167;-75
2022/02/23 03:15:17;;;;;;;0.23;0.10;;;;;;;4.91;98.14;100740.50;5113624;28;20451;-74
2022/02/23 03:17:42;;;;;;;2.37;0.57;;;;;;;4.93;97.86;100736.47;5113842;27;20176;-75
2022/02/23 03:20:08;;;;;;;1.70;0.57;;;;;;;4.96;97.88;100745.97;5113828;28;20682;-75
2022/02/23 03:22:35;;;;;;;4.90;1.60;;;;;;;4.95;97.85;100753.28;5113703;28;20256;-75
2022/02/23 03:25:00;;;;;;;2.33;0.30;;;;;;;4.96;97.71;100759.50;5113650;28;20173;-75
2022/02/23 03:27:26;;;;;;;3.57;1.27;;;;;;;4.89;97.62;100759.72;5113356;28;20242;-74
2022/02/23 03:29:51;;;;;;;2.43;0.97;;;;;;;4.88;97.56;100768.94;5113605;28;20216;-75
2022/02/23 03:32:16;;;;;;;2.43;0.60;;;;;;;4.85;97.54;100769.47;5113586;28;20180;-75
2022/02/23 03:34:42;;;;;;;9.10;0.80;;;;;;;4.84;97.53;100770.56;5113618;28;20260;-75
2022/02/23 03:37:07;;;;;;;0.70;0.70;;;;;;;4.82;98.13;100783.53;5112158;28;20624;-74
2022/02/23 03:39:33;;;;;;;0.57;0.57;;;;;;;4.75;98.05;100777.53;5113425;28;20169;-75
2022/02/23 03:41:58;;;;;;;2.83;1.87;;;;;;;4.75;98.17;100789.19;5113397;28;20173;-75
2022/02/23 03:44:24;;;;;;;1.17;0.80;;;;;;;4.77;97.23;100791.63;5113374;28;20199;-75
2022/02/23 03:46:49;;;;;;;1.00;0.50;;;;;;;4.79;96.08;100803.03;5113152;28;20174;-74
2022/02/23 03:49:15;;;;;;;0.87;0.87;;;;;;;4.82;95.56;100812.50;5113121;28;20671;-75
2022/02/23 03:51:40;;;;;;;7.53;0.87;;;;;;;4.81;94.54;100810.88;5113308;28;20177;-75
2022/02/23 03:54:06;;;;;;;17.13;2.47;;;;;;;4.83;92.87;100814.13;5113055;28;20176;-75
2022/02/23 03:56:40;;;;;;;0.33;0.33;;;;;;;4.82;92.68;100818.72;5113095;28;20169;-74
2022/02/23 03:59:13;;;;;;;7.83;0.20;;;;;;;4.70;93.77;100820.81;5111566;28;20545;-74
2022/02/23 04:01:42;;;;;;;0.27;0.10;;;;;;;4.61;94.29;100823.22;5113043;28;20161;-74
2022/02/23 04:04:08;;;;;;;2.47;0.40;;;;;;;4.57;94.01;100826.72;5112981;28;20643;-75
2022/02/23 04:06:35;;;;;;;4.23;1.23;;;;;;;4.52;94.77;100832.09;5112954;28;20177;-75
2022/02/23 04:09:03;;;;;;;1.03;0.23;;;;;;;4.45;94.80;100825.00;5112630;28;20205;-74
2022/02/23 04:11:28;;;;;;;3.50;0.80;;;;;;;4.44;94.39;100827.97;5112882;28;20179;-74
2022/02/23 04:13:54;;;;;;;2.23;0.40;;;;;;;4.43;94.44;100832.56;5112793;28;20255;-75
2022/02/23 04:16:19;;;;;;;2.37;1.33;;;;;;;4.40;94.63;100832.28;5111358;28;20256;-74
2022/02/23 04:18:45;;;;;;;1.63;0.53;;;;;;;4.37;95.16;100832.81;5112512;28;20209;-74
2022/02/23 04:21:12;;;;;;;2.13;0.80;;;;;;;4.33;95.61;100837.09;5112659;28;20185;-74
2022/02/23 04:23:38;;;;;;;7.37;1.10;;;;;;;4.31;95.82;100856.28;5112580;28;20169;-75
2022/02/23 04:26:03;;;;;;;1.43;0.43;;;;;;;4.26;96.06;100852.75;5112606;28;20264;-75
2022/02/23 04:28:31;;;;;;;0.37;0.37;;;;;;;4.17;96.43;100860.50;5112264;27;20193;-74
2022/02/23 04:30:57;;;;;;;1.43;1.33;;;;;;;4.14;96.55;100866.44;5112743;28;20534;-76
2022/02/23 04:33:23;;;;;;;1.60;1.07;;;;;;;4.14;96.55;100871.84;5112344;28;20169;-76
2022/02/23 04:35:48;;;;;;;4.80;0.70;;;;;;;4.12;96.97;100885.63;5112187;28;20173;-74
2022/02/23 04:38:15;;;;;;;0.27;0.27;;;;;;;4.13;97.08;100881.03;5112344;28;20162;-75
2022/02/23 04:40:43;;;;;;;0.20;0.10;;;;;;;4.14;96.99;100890.78;5112180;28;20212;-74
2022/02/23 04:43:13;;;;;;;0.57;0.50;;;;;;;4.13;96.81;100887.25;5125235;27;20168;-75
2022/02/23 04:45:38;;;;;;;3.87;1.77;;;;;;;4.16;96.37;100896.75;5133303;27;20469;-75
2022/02/23 04:48:04;;;;;;;0.27;0.20;;;;;;;4.18;95.98;100894.59;5143320;27;20195;-75
2022/02/23 04:50:29;;;;;;;4.37;1.63;;;;;;;4.21;95.47;100914.91;5136863;27;20520;-75
2022/02/23 04:52:55;;;;;;;2.00;0.50;;;;;;;4.15;95.24;100901.34;5132551;27;20251;-75
2022/02/23 04:55:20;;;;;;;2.17;0.47;;;;;;;4.14;95.59;100907.81;5131256;27;20264;-74
2022/02/23 04:57:46;;;;;;;4.20;0.73;;;;;;;4.11;95.91;100915.63;5132637;27;20203;-74
2022/02/23 05:00:12;;;;;;;9.07;1.77;;;;;;;4.10;96.37;100914.00;5132456;27;20180;-74
2022/02/23 05:02:37;;;;;;;4.07;0.30;;;;;;;4.11;96.41;100921.84;5132528;27;20229;-75
2022/02/23 05:05:03;;;;;;;8.30;1.13;;;;;;;4.07;96.54;100920.75;5132722;27;20256;-76
2022/02/23 05:07:29;;;;;;;9.87;0.93;;;;;;;4.03;97.29;100918.78;5132366;27;20226;-74
2022/02/23 05:09:55;;;;;;;0.00;0.00;;;;;;;3.98;98.41;100927.69;5131883;27;20546;-75
2022/02/23 05:12:21;;;;;;;1.63;1.53;;;;;;;3.97;98.84;100936.03;5128076;27;20165;-75
2022/02/23 05:14:46;;;;;;;3.87;0.50;;;;;;;3.96;99.67;100932.53;5111747;28;20180;-75
2022/02/23 05:17:12;;;;;;;0.40;0.20;;;;;;;3.97;100.00;100936.84;5111508;28;20170;-74
2022/02/23 05:19:37;;;;;;;4.33;0.83;;;;;;;3.96;100.00;100946.03;5111623;28;20218;-74
2022/02/23 05:22:04;;;;;;;5.70;1.53;;;;;;;3.96;100.00;100939.81;5111619;28;20200;-76
2022/02/23 05:24:29;;;;;;;33.87;2.00;;;;;;;3.96;100.00;100951.44;5111557;28;20181;-75
2022/02/23 05:26:56;;;;;;;2.57;1.33;;;;;;;3.98;100.00;100948.50;5111319;28;20237;-75
2022/02/23 05:29:21;;;;;;;2.93;1.50;;;;;;;3.98;100.00;100962.81;5111477;28;20504;-75
2022/02/23 05:31:47;;;;;;;4.43;1.70;;;;;;;4.00;100.00;100973.38;5111455;28;20256;-75
2022/02/23 05:34:12;;;;;;;2.33;0.60;;;;;;;4.02;100.00;100972.03;5111355;28;20180;-74
2022/02/23 05:36:38;;;;;;;4.47;1.20;;;;;;;4.02;100.00;100971.22;5111028;28;20181;-75
2022/02/23 05:39:03;;;;;;;11.57;1.77;;;;;;;4.01;100.00;100981.22;5111410;28;20169;-75
2022/02/23 05:41:29;;;;;;;15.03;2.27;;;;;;;4.07;100.00;100985.63;5111248;28;20292;-74
2022/02/23 05:43:55;;;;;;;2.43;0.83;;;;;;;4.09;100.00;100994.31;5111533;28;20169;-74
2022/02/23 05:46:20;;;;;;;0.47;0.47;;;;;;;4.12;100.00;101001.09;5111291;28;20633;-74
2022/02/23 05:48:46;;;;;;;5.83;0.70;;;;;;;4.12;100.00;100999.19;5110958;28;20205;-74
2022/02/23 05:51:34;;;;;;;1.30;1.00;;;;;;;4.13;100.00;101000.81;5111444;28;20189;-74
2022/02/23 05:54:01;;;;;;;0.73;0.73;;;;;;;4.13;100.00;101008.13;5111176;28;20198;-74
2022/02/23 05:56:28;;;;;;;13.30;1.27;;;;;;;4.13;100.00;101002.72;5109929;28;20237;-74
2022/02/23 05:58:54;;;;;;;17.93;2.27;;;;;;;4.13;100.00;101008.13;5109657;28;20173;-74
2022/02/23 06:01:20;;;;;;;4.70;1.23;;;;;;;4.17;100.00;101028.97;5111348;28;20169;-75
2022/02/23 06:03:46;;;;;;;0.00;0.00;;;;;;;4.18;100.00;101033.31;5113433;28;20169;-75
2022/02/23 06:06:11;;;;;;;5.10;1.97;;;;;;;4.18;100.00;101027.09;5112531;28;20256;-74
2022/02/23 06:08:37;;;;;;;9.83;1.97;;;;;;;4.22;100.00;101036.34;5111323;28;20556;-75
2022/02/23 06:11:04;;;;;;;8.37;2.27;;;;;;;4.26;100.00;101031.25;5110968;28;20215;-75
2022/02/23 06:13:29;;;;;;;18.50;2.73;;;;;;;4.26;100.00;101044.75;5111018;28;20201;-75
2022/02/23 06:15:55;;;;;;;3.03;1.80;;;;;;;4.29;100.00;101052.38;5110933;28;20197;-75
2022/02/23 06:18:21;;;;;;;0.87;0.73;;;;;;;4.30;100.00;101054.00;5109610;28;20212;-75
2022/02/23 06:20:46;;;;;;;3.83;2.07;;;;;;;4.29;99.65;101042.34;5112016;28;20264;-75
2022/02/23 06:23:11;;;;;;;1.43;0.93;;;;;;;4.24;100.00;101049.63;5116975;27;20256;-74
2022/02/23 06:25:37;;;;;;;16.73;1.63;;;;;;;4.24;99.87;101045.03;5135644;27;20272;-74
2022/02/23 06:28:03;;;;;;;2.17;1.53;;;;;;;4.26;100.00;101039.34;5135164;27;20199;-75
2022/02/23 06:30:29;;;;;;;0.47;0.47;;;;;;;4.31;99.36;101050.22;5135105;27;20196;-75
2022/02/23 06:32:54;;;;;;;8.33;1.13;;;;;;;4.24;99.51;101038.78;5135215;27;20237;-74
2022/02/23 06:35:20;;;;;;;1.43;0.63;;;;;;;4.20;99.66;101038.50;5135252;27;20165;-75
2022/02/23 06:37:46;;;;;;;1.27;0.43;;;;;;;4.15;100.00;101050.06;5135036;27;20181;-75
2022/02/23 06:40:13;;;;;;;1.10;0.33;;;;;;;4.14;100.00;101056.53;5135351;27;20168;-75
2022/02/23 06:42:38;;;;;;;0.20;0.20;;;;;;;4.15;100.00;101058.16;5134995;27;20177;-74
2022/02/23 06:45:05;;;;;;;0.27;0.27;;;;;;;4.15;100.00;101065.47;5135348;27;20180;-75
2022/02/23 06:47:31;;;;;;;8.23;2.17;;;;;;;4.17;100.00;101071.44;5134803;27;20200;-75
2022/02/23 06:49:56;;;;;;;2.93;2.63;;;;;;;4.16;100.00;101075.22;5135215;27;20169;-75
2022/02/23 06:52:22;;;;;;;1.87;1.30;;;;;;;4.13;100.00;101084.66;5134829;27;20173;-77
2022/02/23 06:54:48;;;;;;;2.10;1.00;;;;;;;4.13;100.00;101078.41;5134885;27;20169;-75
2022/02/23 06:57:14;;;;;;;15.47;1.87;;;;;;;4.16;100.00;101076.03;5134992;27;20176;-74
2022/02/23 06:59:40;;;;;;;2.23;1.17;;;;;;;4.19;100.00;101077.41;5134661;27;20180;-75
2022/02/23 07:02:07;;;;;;;11.13;1.30;;;;;;;4.20;100.00;101080.94;5134946;27;20168;-74
2022/02/23 07:04:33;;;;;;;3.03;2.13;;;;;;;4.13;100.00;101098.16;5134592;27;20184;-74
2022/02/23 07:06:58;;;;;;;2.43;0.67;;;;;;;4.17;100.00;101104.69;5134418;27;20238;-73
2022/02/23 07:09:23;;;;;;;1.23;1.20;;;;;;;4.18;100.00;101100.91;5134727;27;20214;-73
2022/02/23 07:11:49;;;;;;;3.73;2.30;;;;;;;4.18;100.00;101109.03;5134573;27;20256;-74
2022/02/23 07:14:14;;;;;;;1.37;1.27;;;;;;;4.20;100.00;101108.00;5133080;27;20172;-75
2022/02/23 07:16:39;;;;;;;1.77;1.67;;;;;;;4.18;100.00;101117.16;5134444;27;20179;-75
2022/02/23 07:19:06;;;;;;;2.83;0.90;;;;;;;4.22;100.00;101130.19;5134829;27;20715;-73
2022/02/23 07:21:33;;;;;;;3.93;3.00;;;;;;;4.21;100.00;101131.25;5134539;27;20165;-74
2022/02/23 07:23:59;;;;;;;8.13;0.50;;;;;;;4.23;100.00;101137.22;5134463;27;20837;-74
2022/02/23 07:26:26;;;;;;;0.30;0.30;;;;;;;4.23;100.00;101143.47;5134673;27;20172;-75
2022/02/23 07:28:51;;;;;;;5.93;1.80;;;;;;;4.24;100.00;101139.69;5135047;27;20287;-75
2022/02/23 07:31:18;;;;;;;22.27;1.67;;;;;;;4.27;100.00;101138.34;5136063;27;20259;-75
2022/02/23 07:33:44;;;;;;;14.57;1.47;;;;;;;4.31;100.00;101144.88;5133452;27;20631;-75
2022/02/23 07:36:10;;;;;;;3.67;2.40;;;;;;;4.36;100.00;101153.06;5134011;27;20658;-72
2022/02/23 07:38:40;;;;;;;0.83;0.57;;;;;;;4.39;100.00;101160.69;5134331;27;20181;-72
2022/02/23 07:41:06;;;;;;;0.50;0.50;;;;;;;4.42;100.00;101163.69;5134157;27;20168;-72
2022/02/23 07:43:33;;;;;;;11.63;1.90;;;;;;;4.42;100.00;101147.47;5134153;27;20675;-72
2022/02/23 07:45:59;;;;;;;9.03;1.40;;;;;;;4.42;100.00;101155.56;5132668;27;20199;-72
2022/02/23 07:48:25;;;;;;;5.50;0.90;;;;;;;4.46;100.00;101161.28;5133564;27;20604;-72
2022/02/23 07:50:50;;;;;;;10.57;2.10;;;;;;;4.49;99.89;101166.22;5133891;27;20169;-72
2022/02/23 07:53:16;;;;;;;7.57;0.67;;;;;;;4.51;99.68;101169.50;5133724;27;20176;-72
2022/02/23 07:55:41;;;;;;;3.57;1.57;;;;;;;4.52;99.56;101165.72;5133785;27;20177;-72
2022/02/23 07:58:07;;;;;;;3.50;0.57;;;;;;;4.52;99.38;101175.72;5133584;27;20184;-73
2022/02/23 08:00:33;;;;;;;0.83;0.83;;;;;;;4.54;99.41;101181.69;5133710;27;20183;-71
2022/02/23 08:02:58;;;;;;;5.40;2.00;;;;;;;4.58;99.47;101183.63;5133674;27;20175;-71
2022/02/23 08:05:24;;;;;;;17.03;1.53;;;;;;;4.62;98.95;101179.34;5132599;27;20177;-70
2022/02/23 08:07:50;;;;;;;4.30;0.50;;;;;;;4.67;99.10;101198.34;5133306;27;20200;-72
2022/02/23 08:10:16;;;;;;;5.73;1.13;;;;;;;4.70;98.63;101208.66;5133456;27;20180;-71
2022/02/23 08:12:41;;;;;;;2.60;1.27;;;;;;;4.72;98.63;101198.41;5116706;27;20632;-71
2022/02/23 08:20:39;;;;;;;1.37;1.27;;;;;;;4.79;97.90;101211.75;5112927;28;20176;-71
2022/02/23 08:23:06;;;;;;;8.57;1.83;;;;;;;4.81;97.96;101214.19;5112536;28;20178;-74
2022/02/23 08:25:31;;;;;;;0.93;0.50;;;;;;;4.84;97.96;101187.44;5112584;28;20260;-72
2022/02/23 08:27:58;;;;;;;0.60;0.60;;;;;;;4.85;97.98;101205.31;5112402;28;20280;-73
2022/02/23 08:30:24;;;;;;;2.10;0.90;;;;;;;4.89;97.69;101206.44;5112684;28;20162;-71
2022/02/23 08:32:49;;;;;;;2.93;1.90;;;;;;;4.92;97.15;101202.38;5112464;28;20704;-73
2022/02/23 08:35:14;;;;;;;1.87;0.83;;;;;;;4.93;96.86;101204.06;5112364;28;20177;-74
2022/02/23 08:37:40;;;;;;;1.20;0.50;;;;;;;4.98;97.02;101212.22;5112089;28;20541;-74
2022/02/23 08:40:06;;;;;;;1.23;0.93;;;;;;;5.03;96.44;101213.06;5110981;28;20641;-73
2022/02/23 08:42:31;;;;;;;1.70;1.00;;;;;;;5.12;96.29;101205.31;5112075;28;20632;-74
2022/02/23 08:44:57;;;;;;;0.20;0.20;;;;;;;5.13;95.43;101200.72;5111116;28;20177;-73
2022/02/23 08:47:25;;;;;;;2.00;1.10;;;;;;;5.17;95.63;101207.25;5111841;28;20173;-74
2022/02/23 08:49:52;;;;;;;0.80;0.80;;;;;;;5.21;95.04;101203.78;5120922;27;20557;-73
2022/02/23 08:52:18;;;;;;;4.50;0.60;;;;;;;5.28;95.04;101215.22;5132552;27;20179;-73
2022/02/23 08:54:43;;;;;;;1.07;0.97;;;;;;;5.34;94.72;101211.47;5132513;27;20168;-73
2022/02/23 08:57:09;;;;;;;1.87;1.13;;;;;;;5.40;94.02;101215.06;5132250;27;20164;-73
2022/02/23 08:59:35;;;;;;;2.67;1.17;;;;;;;5.44;93.38;101212.63;5132381;27;20305;-73
2022/02/23 09:02:00;;;;;;;8.03;1.70;;;;;;;5.45;92.66;101217.81;5132816;27;20167;-73
2022/02/23 09:04:26;;;;;;;0.80;0.60;;;;;;;5.48;93.01;101217.28;5132204;27;20644;-73
2022/02/23 09:06:51;;;;;;;0.50;0.50;;;;;;;5.57;92.75;101218.44;5132053;27;20169;-74
2022/02/23 09:09:17;;;;;;;1.50;0.87;;;;;;;5.63;92.58;101220.09;5132152;27;20208;-75
2022/02/23 09:11:47;;;;;;;3.87;1.57;;;;;;;5.66;92.02;101225.03;5132598;27;20266;-74
2022/02/23 09:14:16;;;;;;;7.43;0.83;;;;;;;5.67;91.26;101221.25;5131573;27;20172;-73
2022/02/23 09:16:43;;;;;;;4.67;2.77;;;;;;;5.68;90.62;101225.59;5131755;27;20247;-73
2022/02/23 09:19:08;;;;;;;2.53;1.17;;;;;;;5.68;90.83;101217.47;5131979;27;20537;-75
2022/02/23 09:21:34;;;;;;;2.63;0.40;;;;;;;5.79;90.80;101222.97;5132105;27;20165;-73
2022/02/23 09:24:00;;;;;;;13.87;1.20;;;;;;;5.90;90.64;101225.50;5131914;27;20172;-74
2022/02/23 09:26:28;;;;;;;1.03;0.60;;;;;;;5.96;90.04;101234.50;5131856;27;20165;-73
2022/02/23 09:28:53;;;;;;;1.40;1.30;;;;;;;6.03;89.94;101234.25;5131587;27;20200;-72
2022/02/23 09:31:18;;;;;;;5.47;1.93;;;;;;;5.95;88.61;101236.41;5132223;27;20675;-73
2022/02/23 09:33:44;;;;;;;2.13;0.27;;;;;;;5.98;88.84;101237.75;5132028;27;20283;-73
2022/02/23 09:36:09;;;;;;;3.03;1.40;;;;;;;6.01;88.90;101241.84;5131637;27;20184;-73
2022/02/23 09:38:36;;;;;;;2.70;0.70;;;;;;;6.03;88.34;101232.38;5131625;27;20243;-74
2022/02/23 09:41:04;;;;;;;0.53;0.50;;;;;;;6.19;88.79;101238.69;5131830;27;20179;-73
2022/02/23 09:43:30;;;;;;;4.57;0.77;;;;;;;6.22;87.41;101235.44;5131639;27;20225;-73
2022/02/23 09:45:56;;;;;;;13.37;1.13;;;;;;;6.20;86.84;101233.00;5131592;27;20178;-73
2022/02/23 09:48:24;;;;;;;8.93;1.53;;;;;;;6.20;85.96;101233.00;5131491;27;20257;-74
2022/02/23 09:50:51;;;;;;;1.83;0.57;;;;;;;6.33;85.87;101239.03;5131609;27;20263;-73
2022/02/23 09:53:17;;;;;;;3.30;3.00;;;;;;;6.35;85.64;101237.69;5131665;27;20177;-71
2022/02/23 09:55:43;;;;;;;2.50;0.97;;;;;;;6.37;85.21;101234.75;5132741;27;20173;-71
2022/02/23 09:58:08;;;;;;;1.43;0.83;;;;;;;6.40;84.37;101239.63;5135688;27;20172;-72
2022/02/23 10:00:34;;;;;;;7.10;1.40;;;;;;;6.49;84.34;101236.13;5135935;27;20525;-71
2022/02/23 10:02:59;;;;;;;0.77;0.23;;;;;;;6.52;83.50;101270.91;5135709;27;20763;-72
2022/02/23 10:05:26;;;;;;;0.37;0.37;;;;;;;6.54;83.50;101309.47;5135380;27;20600;-70
2022/02/23 10:08:02;;;;;;;1.90;1.00;;;;;;;6.54;82.68;101219.88;5135022;27;20198;-72
2022/02/23 10:10:36;;;;;;;4.07;0.80;;;;;;;6.59;82.80;101188.41;5135645;27;20259;-71
2022/02/23 10:13:05;;;;;;;5.60;1.40;;;;;;;6.71;82.11;101287.56;5135249;27;20556;-73
2022/02/23 10:15:36;;;;;;;3.13;0.70;;;;;;;6.84;82.01;101281.66;5135265;27;20767;-72
2022/02/23 10:18:10;;;;;;;1.60;1.10;;;;;;;6.99;82.21;101280.06;5134951;27;20221;-72
2022/02/23 10:20:39;;;;;;;1.80;1.00;;;;;;;7.02;80.50;101209.72;5135376;27;20431;-72
2022/02/23 10:23:18;;;;;;;5.57;1.07;;;;;;;6.96;80.11;101210.78;5135080;27;20616;-71
2022/02/23 10:26:12;;;;;;;0.63;0.20;;;;;;;7.15;80.92;101224.69;5135133;27;20168;-71
2022/02/23 10:28:37;;;;;;;1.47;1.37;;;;;;;7.14;81.92;101221.16;5134678;27;20204;-71
2022/02/23 10:31:07;;;;;;;17.87;1.87;;;;;;;7.09;81.88;101229.31;5134984;27;20695;-71
2022/02/23 10:33:38;;;;;;;10.83;2.53;;;;;;;7.13;81.55;101230.38;5134927;27;20161;-75
2022/02/23 10:36:11;;;;;;;2.23;1.13;;;;;;;7.22;81.21;101232.56;5134704;27;20586;-71
2022/02/23 10:38:50;;;;;;;4.70;2.03;;;;;;;7.32;81.20;101241.56;5134564;27;20164;-71
2022/02/23 10:41:26;;;;;;;3.10;1.90;;;;;;;7.37;81.08;101235.28;5129351;27;20199;-71
2022/02/23 10:43:52;;;;;;;0.27;0.27;;;;;;;7.32;79.47;101235.28;5133921;27;20195;-71
2022/02/23 10:46:18;;;;;;;4.97;1.10;;;;;;;7.35;78.81;101245.63;5146799;27;20168;-74
2022/02/23 10:48:46;;;;;;;3.57;1.80;;;;;;;7.39;79.01;101241.31;5141916;27;20215;-72
2022/02/23 10:51:17;;;;;;;2.83;1.13;;;;;;;7.51;79.70;101241.00;5134774;27;20177;-72
2022/02/23 10:53:43;;;;;;;0.60;0.60;;;;;;;7.58;77.80;101230.69;5134829;27;20562;-74
2022/02/23 10:56:29;;;;;;;0.70;0.67;;;;;;;7.68;78.09;101238.88;5133599;27;20172;-74
2022/02/23 10:59:02;;;;;;;5.53;1.63;;;;;;;7.68;77.90;101231.53;5134543;27;20521;-73
2022/02/23 11:01:28;;;;;;;2.57;1.77;;;;;;;7.67;77.24;101221.72;5134785;27;20255;-73
2022/02/23 11:03:55;;;;;;;5.03;0.80;;;;;;;7.67;76.70;101224.44;5134563;27;20532;-74
2022/02/23 11:06:23;;;;;;;2.03;0.50;;;;;;;7.72;77.27;101229.88;5133351;27;20222;-73
2022/02/23 11:08:52;;;;;;;9.00;1.23;;;;;;;7.96;78.12;101227.41;5130435;27;20295;-73
2022/02/23 11:11:19;;;;;;;0.87;0.80;;;;;;;8.01;76.66;101221.97;5113966;28;20640;-74
2022/02/23 11:13:45;;;;;;;0.87;0.40;;;;;;;7.98;74.26;101219.78;5113708;28;20178;-74
2022/02/23 11:16:12;;;;;;;4.13;0.90;;;;;;;8.20;74.66;101226.81;5113838;28;20566;-70
2022/02/23 11:18:40;;;;;;;3.30;1.97;;;;;;;8.29;74.85;101222.44;5113868;27;20264;-71
2022/02/23 11:21:09;;;;;;;0.43;0.43;;;;;;;8.34;74.69;101220.53;5113845;28;20227;-71
2022/02/23 11:23:37;;;;;;;0.73;0.63;;;;;;;8.40;73.91;101217.81;5113663;28;20174;-71
2022/02/23 11:26:04;;;;;;;2.17;1.13;;;;;;;8.30;73.03;101210.47;5113798;28;20750;-71
2022/02/23 11:28:33;;;;;;;3.10;0.87;;;;;;;8.32;71.64;101209.09;5113349;28;20199;-73
2022/02/23 11:31:11;;;;;;;1.27;0.63;;;;;;;8.35;72.17;101213.19;5113279;28;20173;-70
2022/02/23 11:33:55;;;;;;;2.77;0.70;;;;;;;8.53;72.72;101223.44;5113207;28;20244;-70